createdAt,value
2022-09-12T00:01:13.619Z,5.60
2022-09-12T00:04:52.220Z,6.90
2022-09-12T00:08:30.129Z,7.90
2022-09-12T00:12:08.417Z,4.00
2022-09-12T00:15:45.466Z,10.80
2022-09-12T00:19:22.873Z,5.70
2022-09-12T00:23:01.230Z,7.70
2022-09-12T00:26:39.245Z,6.10
2022-09-12T00:30:16.701Z,5.60
2022-09-12T00:33:57.467Z,6.70
2022-09-12T00:37:35.493Z,6.00
2022-09-12T00:41:31.863Z,8.80
2022-09-12T00:45:23.328Z,8.60
2022-09-12T00:48:56.077Z,5.20
2022-09-12T00:52:57.057Z,4.50
2022-09-12T00:56:36.919Z,6.60
2022-09-12T01:00:17.639Z,6.40
2022-09-12T01:03:54.590Z,6.80
2022-09-12T01:07:39.863Z,3.50
2022-09-12T01:11:21.094Z,6.40
2022-09-12T01:14:58.709Z,4.80
2022-09-12T01:18:50.683Z,6.60
2022-09-12T01:22:28.338Z,3.20
2022-09-12T01:26:11.274Z,4.50
2022-09-12T01:30:16.536Z,3.40
2022-09-12T01:34:16.813Z,6.70
2022-09-12T01:38:04.791Z,4.80
2022-09-12T01:42:02.410Z,6.20
2022-09-12T01:46:00.713Z,3.10
2022-09-12T01:50:01.895Z,3.10
2022-09-12T01:53:48.332Z,4.30
2022-09-12T01:57:32.514Z,3.40
2022-09-12T02:01:27.743Z,4.90
2022-09-12T02:05:11.429Z,3.90
2022-09-12T02:08:57.812Z,7.30
2022-09-12T02:12:50.183Z,3.80
2022-09-12T02:16:37.283Z,4.50
2022-09-12T02:20:43.988Z,7.00
2022-09-12T02:24:21.815Z,3.80
2022-09-12T02:28:07.106Z,1.80
2022-09-12T02:31:52.266Z,4.00
2022-09-12T02:35:33.207Z,3.80
2022-09-12T02:39:10.186Z,3.10
2022-09-12T02:42:47.631Z,6.10
2022-09-12T02:46:41.137Z,5.40
2022-09-12T02:50:18.566Z,3.30
2022-09-12T02:53:56.366Z,3.50
2022-09-12T02:57:33.925Z,4.00
2022-09-12T03:01:26.827Z,7.00
2022-09-12T03:05:14.081Z,2.50
2022-09-12T03:08:55.930Z,3.60
2022-09-12T03:12:54.723Z,2.80
2022-09-12T03:17:05.233Z,3.60
2022-09-12T03:20:57.842Z,3.40
2022-09-12T03:24:43.379Z,4.80
2022-09-12T03:28:23.128Z,3.60
2022-09-12T03:32:01.056Z,3.20
2022-09-12T03:35:39.658Z,3.30
2022-09-12T03:39:17.614Z,4.80
2022-09-12T03:42:55.624Z,1.70
2022-09-12T03:46:33.744Z,4.00
2022-09-12T03:50:11.237Z,4.70
2022-09-12T03:53:49.268Z,3.20
2022-09-12T03:57:28.072Z,1.60
2022-09-12T04:01:14.476Z,3.90
2022-09-12T04:04:52.379Z,3.80
2022-09-12T04:08:29.970Z,2.50
2022-09-12T04:12:07.367Z,2.90
2022-09-12T04:15:56.963Z,3.20
2022-09-12T04:19:35.069Z,3.20
2022-09-12T04:23:11.999Z,5.60
2022-09-12T04:26:49.364Z,3.10
2022-09-12T04:30:28.276Z,2.90
2022-09-12T04:34:06.914Z,3.90
2022-09-12T04:37:44.038Z,4.60
2022-09-12T04:41:27.962Z,2.00
2022-09-12T04:45:06.885Z,1.80
2022-09-12T04:48:44.981Z,3.10
2022-09-12T04:52:22.997Z,3.90
2022-09-12T04:56:05.249Z,3.80
2022-09-12T04:59:43.028Z,1.90
2022-09-12T05:03:20.096Z,5.60
2022-09-12T05:06:57.053Z,5.70
2022-09-12T05:10:35.881Z,4.50
2022-09-12T05:14:13.273Z,2.10
2022-09-12T05:17:50.211Z,6.40
2022-09-12T05:21:46.905Z,8.70
2022-09-12T05:25:05.145Z,4.10
2022-09-12T05:28:43.551Z,4.40
2022-09-12T05:32:21.797Z,4.00
2022-09-12T05:35:59.346Z,4.60
2022-09-12T05:39:37.250Z,7.30
2022-09-12T05:43:14.990Z,2.70
2022-09-12T05:46:53.017Z,5.00
2022-09-12T05:50:30.974Z,1.80
2022-09-12T05:54:11.374Z,6.40
2022-09-12T05:57:48.565Z,3.00
2022-09-12T06:01:28.033Z,7.60
2022-09-12T06:05:08.607Z,5.40
2022-09-12T06:08:49.203Z,6.50
2022-09-12T06:12:29.708Z,4.30
2022-09-12T06:16:09.944Z,8.40
2022-09-12T06:19:47.444Z,7.40
2022-09-12T06:23:25.267Z,6.40
2022-09-12T06:27:02.976Z,8.20
2022-09-12T06:30:40.596Z,4.00
2022-09-12T06:34:18.400Z,4.30
2022-09-12T06:37:56.200Z,6.20
2022-09-12T06:41:34.838Z,6.40
2022-09-12T06:45:15.293Z,4.30
2022-09-12T06:48:55.793Z,6.50
2022-09-12T06:52:32.955Z,10.80
2022-09-12T06:56:17.268Z,9.40
2022-09-12T06:59:57.609Z,12.20
2022-09-12T07:03:36.994Z,12.10
2022-09-12T07:07:14.255Z,8.50
2022-09-12T07:10:51.562Z,10.40
2022-09-12T07:14:29.082Z,9.60
2022-09-12T07:18:07.561Z,8.50
2022-09-12T07:21:45.982Z,8.70
2022-09-12T07:25:23.479Z,8.70
2022-09-12T07:29:25.155Z,7.40
2022-09-12T07:32:59.001Z,11.20
2022-09-12T07:36:37.723Z,8.00
2022-09-12T07:40:15.682Z,8.50
2022-09-12T07:43:55.208Z,10.00
2022-09-12T07:47:33.504Z,10.90
2022-09-12T07:51:12.501Z,15.10
2022-09-12T07:54:50.266Z,8.30
2022-09-12T07:58:30.387Z,13.40
2022-09-12T08:02:16.813Z,9.80
2022-09-12T08:05:55.044Z,9.50
2022-09-12T08:09:33.002Z,6.50
2022-09-12T08:13:12.183Z,7.90
2022-09-12T08:16:49.335Z,4.70
2022-09-12T08:20:28.518Z,9.00
2022-09-12T08:24:07.752Z,5.90
2022-09-12T08:27:46.351Z,6.90
2022-09-12T08:31:26.534Z,5.20
2022-09-12T08:35:06.141Z,7.10
2022-09-12T08:38:45.990Z,3.10
2022-09-12T08:42:52.887Z,4.90
2022-09-12T08:46:42.424Z,9.30
2022-09-12T08:50:23.145Z,3.90
2022-09-12T08:54:04.696Z,6.90
2022-09-12T08:57:43.381Z,5.20
2022-09-12T09:01:31.025Z,8.60
2022-09-12T09:05:30.333Z,12.30
2022-09-12T09:09:19.251Z,11.70
2022-09-12T09:13:06.184Z,5.90
2022-09-12T09:16:46.730Z,5.70
2022-09-12T09:20:43.904Z,3.70
2022-09-12T09:24:28.406Z,5.30
2022-09-12T09:28:13.879Z,7.00
2022-09-12T09:32:00.588Z,7.60
2022-09-12T09:35:52.406Z,7.90
2022-09-12T09:39:36.831Z,7.90
2022-09-12T09:43:22.206Z,7.70
2022-09-12T09:47:01.702Z,5.90
2022-09-12T09:50:39.933Z,7.80
2022-09-12T09:54:23.482Z,7.70
2022-09-12T09:58:01.397Z,6.00
2022-09-12T10:01:48.022Z,15.30
2022-09-12T10:05:26.099Z,6.20
2022-09-12T10:09:15.564Z,9.80
2022-09-12T10:13:08.483Z,10.00
2022-09-12T10:16:52.473Z,9.10
2022-09-12T10:20:41.652Z,6.40
2022-09-12T10:24:28.078Z,8.00
2022-09-12T10:28:20.717Z,8.80
2022-09-12T10:32:02.204Z,6.30
2022-09-12T10:35:47.972Z,6.50
2022-09-12T10:39:26.447Z,5.60
2022-09-12T10:43:18.270Z,9.30
2022-09-12T10:46:59.107Z,6.60
2022-09-12T10:50:43.998Z,6.40
2022-09-12T10:54:26.308Z,5.10
2022-09-12T10:58:04.484Z,4.50
2022-09-12T11:01:47.021Z,8.10
2022-09-12T11:05:53.134Z,5.90
2022-09-12T11:09:40.174Z,5.40
2022-09-12T11:13:36.822Z,8.90
2022-09-12T11:17:36.344Z,8.20
2022-09-12T11:21:16.997Z,5.60
2022-09-12T11:25:13.369Z,3.60
2022-09-12T11:28:57.904Z,5.20
2022-09-12T11:33:09.638Z,7.30
2022-09-12T11:37:02.624Z,6.00
2022-09-12T11:40:43.532Z,7.60
2022-09-12T11:44:40.287Z,11.80
2022-09-12T11:48:30.027Z,6.70
2022-09-12T11:52:20.445Z,4.30
2022-09-12T11:56:08.342Z,6.00
2022-09-12T12:00:01.214Z,6.90
2022-09-12T12:03:44.203Z,7.20
2022-09-12T12:07:23.017Z,7.10
2022-09-12T12:11:03.758Z,5.20
2022-09-12T12:14:46.644Z,5.80
2022-09-12T12:18:32.412Z,4.70
2022-09-12T12:22:24.809Z,5.00
2022-09-12T12:26:04.013Z,5.60
2022-09-12T12:29:46.097Z,6.30
2022-09-12T12:33:27.010Z,7.00
2022-09-12T12:37:20.116Z,4.70
2022-09-12T12:41:43.136Z,5.80
2022-09-12T12:45:27.145Z,5.80
2022-09-12T12:49:28.454Z,6.50
2022-09-12T12:53:28.021Z,6.50
2022-09-12T12:57:20.496Z,7.00
2022-09-12T13:01:13.513Z,5.10
2022-09-12T13:04:52.801Z,5.90
2022-09-12T13:08:33.235Z,6.40
2022-09-12T13:12:18.977Z,5.10
2022-09-12T13:15:57.796Z,7.20
2022-09-12T13:19:38.112Z,7.30
2022-09-12T13:23:32.091Z,7.70
2022-09-12T13:27:25.542Z,9.50
2022-09-12T13:31:26.680Z,7.00
2022-09-12T13:35:25.887Z,8.50
2022-09-12T13:39:15.781Z,7.30
2022-09-12T13:43:09.418Z,7.60
2022-09-12T13:46:49.903Z,8.30
2022-09-12T13:50:37.514Z,12.20
2022-09-12T13:54:23.838Z,6.80
2022-09-12T13:58:07.657Z,7.20
2022-09-12T14:01:47.506Z,7.90
2022-09-12T14:05:26.985Z,8.00
2022-09-12T14:09:14.042Z,11.30
2022-09-12T14:12:51.595Z,7.20
2022-09-12T14:16:32.653Z,6.40
2022-09-12T14:20:16.607Z,4.00
2022-09-12T14:23:54.882Z,4.40
2022-09-12T14:27:40.913Z,5.00
2022-09-12T14:31:38.662Z,4.80
2022-09-12T14:35:20.446Z,5.60
2022-09-12T14:39:04.632Z,5.60
2022-09-12T14:42:42.726Z,4.80
2022-09-12T14:46:27.111Z,7.30
2022-09-12T14:50:16.318Z,5.50
2022-09-12T14:53:54.745Z,6.50
2022-09-12T14:57:40.722Z,6.90
2022-09-12T15:01:19.574Z,9.60
2022-09-12T15:05:09.405Z,8.50
2022-09-12T15:08:48.493Z,7.60
2022-09-12T15:12:27.163Z,8.40
2022-09-12T15:16:04.932Z,4.30
2022-09-12T15:19:43.002Z,6.70
2022-09-12T15:23:41.571Z,7.10
2022-09-12T15:27:20.191Z,8.10
2022-09-12T15:31:05.468Z,8.10
2022-09-12T15:34:43.407Z,7.50
2022-09-12T15:38:26.160Z,7.50
2022-09-12T15:42:06.056Z,11.60
2022-09-12T15:45:45.017Z,15.30
2022-09-12T15:49:23.041Z,9.80
2022-09-12T15:53:00.911Z,10.40
2022-09-12T15:56:38.705Z,9.60
2022-09-12T16:00:18.767Z,11.70
2022-09-12T16:03:57.152Z,10.30
2022-09-12T16:07:35.410Z,13.10
2022-09-12T16:11:25.973Z,7.90
2022-09-12T16:15:08.311Z,13.00
2022-09-12T16:18:41.225Z,9.20
2022-09-12T16:22:19.541Z,16.10
2022-09-12T16:26:01.585Z,12.20
2022-09-12T16:29:39.255Z,12.70
2022-09-12T16:33:17.051Z,11.60
2022-09-12T16:36:54.134Z,11.30
2022-09-12T16:40:32.349Z,7.30
2022-09-12T16:44:10.910Z,11.00
2022-09-12T16:47:48.678Z,8.30
2022-09-12T16:51:33.157Z,9.40
2022-09-12T16:55:10.322Z,14.80
2022-09-12T16:58:47.867Z,10.20
2022-09-12T17:02:24.837Z,16.90
2022-09-12T17:06:08.528Z,14.60
2022-09-12T17:09:47.985Z,15.80
2022-09-12T17:13:36.698Z,14.60
2022-09-12T17:17:23.903Z,14.80
2022-09-12T17:21:02.258Z,13.20
2022-09-12T17:24:40.320Z,11.40
2022-09-12T17:28:18.951Z,13.10
2022-09-12T17:31:56.969Z,12.60
2022-09-12T17:35:35.479Z,13.20
2022-09-12T17:39:14.345Z,11.70
2022-09-12T17:42:52.365Z,15.60
2022-09-12T17:46:34.384Z,16.90
2022-09-12T17:50:30.811Z,16.00
2022-09-12T17:54:16.207Z,15.80
2022-09-12T17:57:53.316Z,16.80
2022-09-12T18:01:30.824Z,13.70
2022-09-12T18:05:09.457Z,19.00
2022-09-12T18:08:47.265Z,16.40
2022-09-12T18:12:25.611Z,14.80
2022-09-12T18:16:08.408Z,13.80
2022-09-12T18:19:49.275Z,19.00
2022-09-12T18:23:31.384Z,17.50
2022-09-12T18:27:09.051Z,13.20
2022-09-12T18:30:47.328Z,18.50
2022-09-12T18:34:25.454Z,14.50
2022-09-12T18:38:02.648Z,17.70
2022-09-12T18:41:41.023Z,19.40
2022-09-12T18:45:19.410Z,17.30
2022-09-12T18:48:59.151Z,15.50
2022-09-12T18:52:37.166Z,17.30
2022-09-12T18:56:14.681Z,21.40
2022-09-12T18:59:52.721Z,19.00
2022-09-12T19:03:30.583Z,17.10
2022-09-12T19:07:09.273Z,25.00
2022-09-12T19:10:56.239Z,17.40
2022-09-12T19:14:33.697Z,17.00
2022-09-12T19:18:10.984Z,18.40
2022-09-12T19:21:48.907Z,15.10
2022-09-12T19:25:26.984Z,21.60
2022-09-12T19:29:08.632Z,21.80
2022-09-12T19:32:46.074Z,17.40
2022-09-12T19:36:44.306Z,23.80
2022-09-12T19:40:22.027Z,19.80
2022-09-12T19:44:02.527Z,17.20
2022-09-12T19:47:42.913Z,22.30
2022-09-12T19:51:18.073Z,15.80
2022-09-12T19:54:55.732Z,19.90
2022-09-12T19:58:41.638Z,25.70
2022-09-12T20:02:19.489Z,27.10
2022-09-12T20:06:05.304Z,24.00
2022-09-12T20:09:42.604Z,20.70
2022-09-12T20:13:21.241Z,20.70
2022-09-12T20:16:59.096Z,15.20
2022-09-12T20:20:37.355Z,22.20
2022-09-12T20:24:14.979Z,22.10
2022-09-12T20:28:00.139Z,19.50
2022-09-12T20:31:30.592Z,23.20
2022-09-12T20:35:09.399Z,20.90
2022-09-12T20:38:51.856Z,20.70
2022-09-12T20:42:31.375Z,23.00
2022-09-12T20:46:11.294Z,25.40
2022-09-12T20:49:48.839Z,19.70
2022-09-12T20:53:30.556Z,24.30
2022-09-12T20:57:10.293Z,21.70
2022-09-12T21:00:48.117Z,22.40
2022-09-12T21:04:25.066Z,18.30
2022-09-12T21:08:02.776Z,21.70
2022-09-12T21:11:40.654Z,21.80
2022-09-12T21:15:17.767Z,21.90
2022-09-12T21:18:58.484Z,27.20
2022-09-12T21:22:36.197Z,20.80
2022-09-12T21:26:13.958Z,20.60
2022-09-12T21:29:52.949Z,18.30
2022-09-12T21:33:30.664Z,25.30
2022-09-12T21:37:08.649Z,26.70
2022-09-12T21:40:47.302Z,31.50
2022-09-12T21:44:26.216Z,30.30
2022-09-12T21:48:05.464Z,27.10
2022-09-12T21:51:42.916Z,31.10
2022-09-12T21:55:20.115Z,26.40
2022-09-12T21:58:57.155Z,21.80
2022-09-12T22:02:34.253Z,20.90
2022-09-12T22:06:11.910Z,22.60
2022-09-12T22:09:50.370Z,27.10
2022-09-12T22:13:27.886Z,31.80
2022-09-12T22:17:09.677Z,21.70
2022-09-12T22:20:46.848Z,27.90
2022-09-12T22:24:25.261Z,29.40
2022-09-12T22:28:02.915Z,32.00
2022-09-12T22:31:40.721Z,25.30
2022-09-12T22:35:19.656Z,29.10
2022-09-12T22:38:57.854Z,18.40
2022-09-12T22:42:36.066Z,24.30
2022-09-12T22:46:13.853Z,25.30
2022-09-12T22:49:51.950Z,26.40
2022-09-12T22:53:29.664Z,22.30
2022-09-12T22:57:07.624Z,20.00
2022-09-12T23:00:47.605Z,16.00
2022-09-12T23:04:25.513Z,27.10
2022-09-12T23:08:03.820Z,20.50
2022-09-12T23:11:42.662Z,20.40
2022-09-12T23:15:19.808Z,13.50
2022-09-12T23:18:58.645Z,15.80
2022-09-12T23:22:37.073Z,21.50
2022-09-12T23:26:20.486Z,14.40
2022-09-12T23:30:01.366Z,17.90
2022-09-12T23:33:36.405Z,14.40
2022-09-12T23:37:13.478Z,22.80
2022-09-12T23:40:51.052Z,17.00
2022-09-12T23:44:28.868Z,15.00
2022-09-12T23:48:06.162Z,15.20
2022-09-12T23:51:43.444Z,20.70
2022-09-12T23:55:21.637Z,10.20
2022-09-12T23:58:59.793Z,15.00
